createdAt,value
2022-11-06T00:00:21.699Z,8.03
2022-11-06T00:00:53.245Z,8.05
2022-11-06T00:01:24.814Z,8.04
2022-11-06T00:01:56.474Z,8.02
2022-11-06T00:02:28.289Z,8.02
2022-11-06T00:03:00.920Z,8.01
2022-11-06T00:03:32.967Z,8.01
2022-11-06T00:04:04.869Z,8.03
2022-11-06T00:04:36.405Z,8.09
2022-11-06T00:05:26.955Z,8.13
2022-11-06T00:06:16.908Z,8.10
2022-11-06T00:06:48.441Z,8.06
2022-11-06T00:07:19.931Z,8.04
2022-11-06T00:07:51.518Z,8.05
2022-11-06T00:08:34.816Z,8.10
2022-11-06T00:09:08.855Z,8.02
2022-11-06T00:09:40.449Z,8.03
2022-11-06T00:10:12.811Z,8.00
2022-11-06T00:10:44.317Z,8.02
2022-11-06T00:11:16.912Z,8.01
2022-11-06T00:11:50.219Z,8.00
2022-11-06T00:12:21.734Z,7.98
2022-11-06T00:12:53.367Z,7.99
2022-11-06T00:13:25.163Z,8.03
2022-11-06T00:13:57.327Z,8.02
2022-11-06T00:14:28.815Z,8.00
2022-11-06T00:15:00.335Z,8.05
2022-11-06T00:15:31.834Z,8.04
2022-11-06T00:16:05.627Z,8.12
2022-11-06T00:16:38.534Z,8.11
2022-11-06T00:17:10.259Z,8.09
2022-11-06T00:17:41.833Z,8.10
2022-11-06T00:18:13.631Z,8.11
2022-11-06T00:18:45.675Z,8.12
2022-11-06T00:19:17.583Z,8.12
2022-11-06T00:19:49.334Z,8.06
2022-11-06T00:20:20.931Z,8.08
2022-11-06T00:20:52.409Z,8.08
2022-11-06T00:21:26.258Z,8.09
2022-11-06T00:21:57.813Z,8.06
2022-11-06T00:22:32.872Z,8.07
2022-11-06T00:23:04.466Z,8.07
2022-11-06T00:23:36.127Z,8.05
2022-11-06T00:24:09.386Z,8.13
2022-11-06T00:24:40.880Z,8.13
2022-11-06T00:25:12.541Z,8.09
2022-11-06T00:25:44.049Z,8.07
2022-11-06T00:26:18.640Z,8.09
2022-11-06T00:26:54.431Z,8.15
2022-11-06T00:32:22.658Z,8.15
2022-11-06T00:32:54.328Z,8.12
2022-11-06T00:33:25.864Z,8.13
2022-11-06T00:33:59.276Z,8.11
2022-11-06T00:34:30.906Z,8.14
2022-11-06T00:35:02.461Z,8.09
2022-11-06T00:35:33.963Z,8.09
2022-11-06T00:36:07.643Z,8.12
2022-11-06T00:36:39.269Z,8.10
2022-11-06T00:37:10.771Z,8.12
2022-11-06T00:37:42.296Z,8.13
2022-11-06T00:38:14.096Z,8.15
2022-11-06T00:38:46.401Z,8.15
2022-11-06T00:39:17.894Z,8.17
2022-11-06T00:39:49.361Z,8.17
2022-11-06T00:40:20.997Z,8.17
2022-11-06T00:40:52.559Z,8.23
2022-11-06T00:41:24.463Z,8.23
2022-11-06T00:41:55.973Z,8.26
2022-11-06T00:42:27.586Z,8.28
2022-11-06T00:42:59.199Z,8.29
2022-11-06T00:43:30.968Z,8.26
2022-11-06T00:44:02.949Z,8.26
2022-11-06T00:44:34.497Z,8.25
2022-11-06T00:45:06.608Z,8.26
2022-11-06T00:45:38.246Z,8.30
2022-11-06T00:46:11.724Z,8.34
2022-11-06T00:46:43.235Z,8.31
2022-11-06T00:47:14.709Z,8.28
2022-11-06T00:47:46.177Z,8.22
2022-11-06T00:48:17.813Z,8.23
2022-11-06T00:48:50.193Z,8.21
2022-11-06T00:49:21.715Z,8.23
2022-11-06T00:49:53.367Z,8.20
2022-11-06T00:50:26.698Z,8.19
2022-11-06T00:51:28.389Z,8.17
2022-11-06T00:51:59.901Z,8.15
2022-11-06T00:52:31.390Z,8.16
2022-11-06T00:53:02.906Z,8.16
2022-11-06T00:53:34.743Z,8.16
2022-11-06T00:54:09.373Z,8.19
2022-11-06T00:54:40.978Z,8.16
2022-11-06T00:55:12.639Z,8.14
2022-11-06T00:55:44.150Z,8.13
2022-11-06T00:56:18.262Z,8.11
2022-11-06T00:56:49.782Z,8.08
2022-11-06T00:57:21.367Z,8.06
2022-11-06T00:57:52.922Z,8.07
2022-11-06T00:58:24.542Z,8.06
2022-11-06T00:58:58.472Z,8.05
2022-11-06T00:59:29.985Z,8.09
2022-11-06T01:00:01.964Z,8.10
2022-11-06T01:00:33.662Z,8.10
2022-11-06T01:01:15.415Z,8.07
2022-11-06T01:01:47.114Z,8.14
2022-11-06T01:02:19.747Z,8.10
2022-11-06T01:02:51.632Z,8.15
2022-11-06T01:03:23.202Z,8.13
2022-11-06T01:03:57.075Z,8.11
2022-11-06T01:04:28.585Z,8.09
2022-11-06T01:05:00.109Z,8.13
2022-11-06T01:05:32.617Z,8.15
2022-11-06T01:06:06.223Z,8.13
2022-11-06T01:06:40.904Z,8.11
2022-11-06T01:07:12.626Z,8.11
2022-11-06T01:07:44.202Z,8.11
2022-11-06T01:08:16.079Z,8.13
2022-11-06T01:08:49.679Z,8.11
2022-11-06T01:09:24.398Z,8.14
2022-11-06T01:09:55.875Z,8.17
2022-11-06T01:10:27.626Z,8.16
2022-11-06T01:10:59.294Z,8.15
2022-11-06T01:11:59.395Z,8.16
2022-11-06T01:12:27.401Z,8.17
2022-11-06T01:12:58.886Z,8.16
2022-11-06T01:13:30.404Z,8.15
2022-11-06T01:14:04.208Z,8.16
2022-11-06T01:14:36.192Z,8.14
2022-11-06T01:15:08.061Z,8.14
2022-11-06T01:15:39.558Z,8.20
2022-11-06T01:16:14.375Z,8.22
2022-11-06T01:16:46.067Z,8.20
2022-11-06T01:17:17.634Z,8.23
2022-11-06T01:17:49.134Z,8.20
2022-11-06T01:18:20.719Z,8.19
2022-11-06T01:18:53.430Z,8.19
2022-11-06T01:19:25.192Z,8.17
2022-11-06T01:19:56.844Z,8.16
2022-11-06T01:20:28.330Z,8.15
2022-11-06T01:21:03.843Z,8.18
2022-11-06T01:21:39.057Z,8.17
2022-11-06T01:22:10.618Z,8.14
2022-11-06T01:22:42.203Z,8.14
2022-11-06T01:23:13.884Z,8.16
2022-11-06T01:23:45.984Z,8.14
2022-11-06T01:24:22.598Z,8.11
2022-11-06T01:24:54.237Z,8.11
2022-11-06T01:25:25.897Z,8.13
2022-11-06T01:26:03.561Z,8.11
2022-11-06T01:26:39.368Z,8.18
2022-11-06T01:27:29.794Z,8.13
2022-11-06T01:28:01.343Z,8.10
2022-11-06T01:28:33.039Z,8.11
2022-11-06T01:29:06.311Z,8.11
2022-11-06T01:29:38.012Z,8.04
2022-11-06T01:30:10.131Z,8.05
2022-11-06T01:30:41.643Z,8.01
2022-11-06T01:31:18.451Z,7.99
2022-11-06T01:31:50.559Z,7.98
2022-11-06T01:32:22.244Z,8.02
2022-11-06T01:32:53.782Z,7.98
2022-11-06T01:33:25.349Z,7.98
2022-11-06T01:33:58.107Z,7.94
2022-11-06T01:34:29.673Z,7.89
2022-11-06T01:35:01.156Z,7.88
2022-11-06T01:35:32.742Z,7.85
2022-11-06T01:36:04.620Z,7.84
2022-11-06T01:36:36.108Z,7.82
2022-11-06T01:37:13.043Z,7.79
2022-11-06T01:37:46.015Z,7.84
2022-11-06T01:38:18.100Z,7.80
2022-11-06T01:38:51.633Z,7.80
2022-11-06T01:39:23.194Z,7.77
2022-11-06T01:39:54.685Z,7.75
2022-11-06T01:40:26.236Z,7.73
2022-11-06T01:40:57.790Z,7.71
2022-11-06T01:41:33.112Z,7.70
2022-11-06T01:42:04.677Z,7.67
2022-11-06T01:42:36.141Z,7.66
2022-11-06T01:43:46.103Z,7.64
2022-11-06T01:44:35.774Z,7.62
2022-11-06T01:45:25.292Z,7.61
2022-11-06T01:45:57.051Z,7.63
2022-11-06T01:46:31.187Z,7.62
2022-11-06T01:47:06.676Z,7.60
2022-11-06T01:47:38.421Z,7.58
2022-11-06T01:48:10.416Z,7.60
2022-11-06T01:48:45.678Z,7.56
2022-11-06T01:49:17.642Z,7.59
2022-11-06T01:49:51.729Z,7.59
2022-11-06T01:50:23.415Z,7.58
2022-11-06T01:50:57.077Z,7.58
2022-11-06T01:51:30.097Z,7.59
2022-11-06T01:52:06.132Z,7.59
2022-11-06T01:52:38.078Z,7.65
2022-11-06T01:53:09.912Z,7.63
2022-11-06T01:53:41.705Z,7.63
2022-11-06T01:54:13.328Z,7.59
2022-11-06T01:54:48.149Z,7.63
2022-11-06T01:55:24.278Z,7.62
2022-11-06T01:56:00.227Z,7.61
2022-11-06T01:56:31.871Z,7.64
2022-11-06T01:57:04.467Z,7.63
2022-11-06T01:57:36.116Z,7.63
2022-11-06T01:58:10.221Z,7.65
2022-11-06T01:58:44.426Z,7.71
2022-11-06T01:59:19.870Z,7.71
2022-11-06T01:59:52.589Z,7.73
2022-11-06T02:01:00.145Z,7.71
2022-11-06T02:01:31.848Z,7.70
2022-11-06T02:02:03.659Z,7.70
2022-11-06T02:02:36.434Z,7.78
2022-11-06T02:03:08.272Z,7.78
2022-11-06T02:03:43.096Z,7.81
2022-11-06T02:04:19.419Z,7.80
2022-11-06T02:04:51.038Z,7.80
2022-11-06T02:05:23.061Z,7.85
2022-11-06T02:05:54.958Z,7.86
2022-11-06T02:06:26.836Z,7.88
2022-11-06T02:06:59.328Z,7.89
2022-11-06T02:07:30.845Z,7.91
2022-11-06T02:08:03.543Z,7.93
2022-11-06T02:08:35.416Z,7.95
2022-11-06T02:09:11.385Z,7.98
2022-11-06T02:09:44.074Z,8.00
2022-11-06T02:10:15.688Z,7.98
2022-11-06T02:10:47.752Z,8.04
2022-11-06T02:11:19.470Z,8.02
2022-11-06T02:12:05.612Z,8.02
2022-11-06T02:12:45.828Z,8.03
2022-11-06T02:13:29.854Z,8.05
2022-11-06T02:14:09.764Z,8.09
2022-11-06T02:15:23.537Z,8.09
2022-11-06T02:16:18.375Z,8.09
2022-11-06T02:16:57.140Z,8.07
2022-11-06T02:18:00.681Z,8.13
2022-11-06T02:18:40.932Z,8.09
2022-11-06T02:19:44.072Z,8.07
2022-11-06T02:20:26.508Z,8.07
2022-11-06T02:21:26.105Z,8.09
2022-11-06T02:22:00.191Z,8.11
2022-11-06T02:22:50.462Z,8.06
2022-11-06T02:23:42.692Z,8.07
2022-11-06T02:24:30.953Z,8.12
2022-11-06T02:25:11.542Z,8.09
2022-11-06T02:25:50.530Z,8.04
2022-11-06T02:26:30.861Z,8.04
2022-11-06T02:27:15.289Z,8.03
2022-11-06T02:27:52.166Z,8.02
2022-11-06T02:28:39.295Z,8.02
2022-11-06T02:29:16.705Z,8.03
2022-11-06T02:29:54.284Z,8.00
2022-11-06T02:30:25.825Z,7.99
2022-11-06T02:30:58.504Z,8.00
2022-11-06T02:31:32.393Z,7.95
2022-11-06T02:32:12.208Z,7.98
2022-11-06T02:32:52.810Z,8.02
2022-11-06T02:33:30.621Z,8.03
2022-11-06T02:34:06.176Z,8.08
2022-11-06T02:34:38.949Z,8.02
2022-11-06T02:35:33.013Z,8.03
2022-11-06T02:36:08.153Z,7.99
2022-11-06T02:36:44.057Z,8.01
2022-11-06T02:37:18.428Z,8.03
2022-11-06T02:37:54.084Z,8.04
2022-11-06T02:38:33.298Z,8.02
2022-11-06T02:39:10.080Z,8.05
2022-11-06T02:39:42.781Z,8.01
2022-11-06T02:40:15.788Z,8.00
2022-11-06T02:40:50.514Z,7.98
2022-11-06T02:41:30.273Z,7.97
2022-11-06T02:42:03.256Z,7.98
2022-11-06T02:42:38.165Z,7.95
2022-11-06T02:43:10.585Z,7.96
2022-11-06T02:43:45.413Z,7.94
2022-11-06T02:44:22.270Z,7.93
2022-11-06T02:44:55.045Z,7.90
2022-11-06T02:45:27.771Z,7.92
2022-11-06T02:46:23.265Z,7.91
2022-11-06T02:47:01.870Z,7.92
2022-11-06T02:47:34.132Z,7.89
2022-11-06T02:48:09.127Z,7.85
2022-11-06T02:48:50.993Z,7.84
2022-11-06T02:49:47.473Z,7.85
2022-11-06T02:50:23.539Z,7.82
2022-11-06T02:50:56.818Z,7.84
2022-11-06T02:51:30.656Z,7.85
2022-11-06T02:52:13.162Z,7.83
2022-11-06T02:52:51.756Z,7.84
2022-11-06T02:53:24.961Z,7.82
2022-11-06T02:54:00.342Z,7.82
2022-11-06T02:54:35.063Z,7.82
2022-11-06T02:55:13.696Z,7.83
2022-11-06T02:55:50.525Z,7.86
2022-11-06T02:56:27.555Z,7.86
2022-11-06T02:57:00.587Z,7.85
2022-11-06T02:57:36.276Z,7.87
2022-11-06T02:58:17.160Z,7.88
2022-11-06T02:58:59.117Z,7.88
2022-11-06T02:59:38.729Z,7.86
2022-11-06T03:00:12.945Z,7.83
2022-11-06T03:00:52.808Z,7.81
2022-11-06T03:01:31.402Z,7.85
2022-11-06T03:02:05.976Z,7.84
2022-11-06T03:02:56.143Z,7.82
2022-11-06T03:03:30.473Z,7.82
2022-11-06T03:04:05.610Z,7.79
2022-11-06T03:04:45.510Z,7.78
2022-11-06T03:05:24.064Z,7.78
2022-11-06T03:05:58.482Z,7.79
2022-11-06T03:06:36.047Z,7.76
2022-11-06T03:07:32.860Z,7.72
2022-11-06T03:08:36.823Z,7.70
2022-11-06T03:09:12.465Z,7.70
2022-11-06T03:09:44.677Z,7.70
2022-11-06T03:10:16.572Z,7.71
2022-11-06T03:10:59.927Z,7.72
2022-11-06T03:11:35.792Z,7.69
2022-11-06T03:12:25.254Z,7.68
2022-11-06T03:12:59.994Z,7.62
2022-11-06T03:13:53.820Z,7.65
2022-11-06T03:14:31.570Z,7.66
2022-11-06T03:15:11.031Z,7.65
2022-11-06T03:16:06.465Z,7.67
2022-11-06T03:17:01.380Z,7.70
2022-11-06T03:17:43.402Z,7.74
2022-11-06T03:18:34.991Z,7.80
2022-11-06T03:19:26.104Z,7.80
2022-11-06T03:20:14.605Z,7.77
2022-11-06T03:20:58.219Z,7.77
2022-11-06T03:21:34.451Z,7.78
2022-11-06T03:22:24.935Z,7.83
2022-11-06T03:23:06.332Z,7.84
2022-11-06T03:24:08.791Z,7.84
2022-11-06T03:24:50.247Z,7.89
2022-11-06T03:25:25.220Z,7.89
2022-11-06T03:26:01.447Z,7.94
2022-11-06T03:26:36.985Z,7.91
2022-11-06T03:27:17.502Z,7.91
2022-11-06T03:28:08.760Z,7.92
2022-11-06T03:28:48.527Z,7.93
2022-11-06T03:29:33.674Z,7.93
2022-11-06T03:30:13.837Z,7.92
2022-11-06T03:30:54.576Z,7.94
2022-11-06T03:31:30.328Z,7.93
2022-11-06T03:32:10.651Z,7.93
2022-11-06T03:32:49.209Z,7.95
2022-11-06T03:33:32.914Z,7.98
2022-11-06T03:34:09.462Z,7.98
2022-11-06T03:35:09.796Z,7.96
2022-11-06T03:35:46.100Z,8.01
2022-11-06T03:36:25.378Z,8.02
2022-11-06T03:37:04.973Z,8.02
2022-11-06T03:37:40.175Z,8.04
2022-11-06T03:38:21.619Z,8.05
2022-11-06T03:38:57.458Z,8.05
2022-11-06T03:39:32.786Z,8.06
2022-11-06T03:40:08.621Z,8.06
2022-11-06T03:40:44.754Z,8.08
2022-11-06T03:41:39.850Z,8.08
2022-11-06T03:42:15.322Z,8.09
2022-11-06T03:42:48.524Z,8.11
2022-11-06T03:43:23.001Z,8.06
2022-11-06T03:43:56.537Z,8.07
2022-11-06T03:44:28.898Z,8.07
2022-11-06T03:45:04.179Z,8.05
2022-11-06T03:45:36.342Z,8.12
2022-11-06T03:46:13.081Z,8.11
2022-11-06T03:46:50.589Z,8.07
2022-11-06T03:47:38.041Z,8.07
2022-11-06T03:48:12.839Z,8.10
2022-11-06T03:48:47.985Z,8.12
2022-11-06T03:49:27.096Z,8.11
2022-11-06T03:50:06.632Z,8.12
2022-11-06T03:50:45.591Z,8.09
2022-11-06T03:51:24.285Z,8.13
2022-11-06T03:52:00.522Z,8.11
2022-11-06T03:52:43.211Z,8.09
2022-11-06T03:53:30.660Z,8.11
2022-11-06T03:54:17.275Z,8.12
2022-11-06T03:55:01.840Z,8.15
2022-11-06T03:55:39.899Z,8.13
2022-11-06T03:56:18.073Z,8.13
2022-11-06T03:56:56.750Z,8.15
2022-11-06T03:57:41.661Z,8.14
2022-11-06T03:58:19.479Z,8.13
2022-11-06T03:58:51.716Z,8.14
2022-11-06T03:59:25.319Z,8.14
2022-11-06T03:59:59.769Z,8.16
2022-11-06T04:00:34.261Z,8.17
2022-11-06T04:01:07.586Z,8.21
2022-11-06T04:01:43.041Z,8.18
2022-11-06T04:02:31.954Z,8.19
2022-11-06T04:03:08.168Z,8.20
2022-11-06T04:03:45.053Z,8.20
2022-11-06T04:04:22.081Z,8.18
2022-11-06T04:04:58.838Z,8.18
2022-11-06T04:05:36.153Z,8.19
2022-11-06T04:06:15.718Z,8.22
2022-11-06T04:06:52.587Z,8.22
2022-11-06T04:07:31.573Z,8.24
2022-11-06T04:08:22.330Z,8.24
2022-11-06T04:09:15.349Z,8.26
2022-11-06T04:10:09.597Z,8.24
2022-11-06T04:11:03.702Z,8.28
2022-11-06T04:11:55.361Z,8.28
2022-11-06T04:12:47.053Z,8.28
2022-11-06T04:13:39.288Z,8.31
2022-11-06T04:14:11.908Z,8.30
2022-11-06T04:14:47.042Z,8.32
2022-11-06T04:15:19.632Z,8.29
2022-11-06T04:15:52.886Z,8.34
2022-11-06T04:16:26.629Z,8.29
2022-11-06T04:17:01.270Z,8.30
2022-11-06T04:17:33.306Z,8.29
2022-11-06T04:18:12.507Z,8.29
2022-11-06T04:18:44.387Z,8.28
2022-11-06T04:19:20.411Z,8.30
2022-11-06T04:19:59.182Z,8.30
2022-11-06T04:20:56.392Z,8.31
2022-11-06T04:22:05.172Z,8.31
2022-11-06T04:22:51.426Z,8.32
2022-11-06T04:23:33.729Z,8.32
2022-11-06T04:24:41.886Z,8.34
2022-11-06T04:25:53.078Z,8.35
2022-11-06T04:26:38.046Z,8.31
2022-11-06T04:27:18.223Z,8.31
2022-11-06T04:28:21.899Z,8.30
2022-11-06T04:29:08.895Z,8.34
2022-11-06T04:29:55.656Z,8.34
2022-11-06T04:30:31.097Z,8.36
2022-11-06T04:31:08.637Z,8.36
2022-11-06T04:31:49.078Z,8.35
2022-11-06T04:32:35.468Z,8.35
2022-11-06T04:33:13.621Z,8.36
2022-11-06T04:33:47.184Z,8.33
2022-11-06T04:34:44.079Z,8.39
2022-11-06T04:35:22.684Z,8.42
2022-11-06T04:36:02.263Z,8.40
2022-11-06T04:36:59.640Z,8.42
2022-11-06T04:37:53.318Z,8.40
2022-11-06T04:38:53.916Z,8.39
2022-11-06T04:39:37.464Z,8.40
2022-11-06T04:40:12.234Z,8.40
2022-11-06T04:40:52.878Z,8.39
2022-11-06T04:41:40.972Z,8.38
2022-11-06T04:42:23.335Z,8.41
2022-11-06T04:43:05.199Z,8.40
2022-11-06T04:43:45.719Z,8.41
2022-11-06T04:44:41.210Z,8.41
2022-11-06T04:45:24.798Z,8.41
2022-11-06T04:45:58.453Z,8.42
2022-11-06T04:46:41.226Z,8.42
2022-11-06T04:47:16.817Z,8.42
2022-11-06T04:47:49.770Z,8.43
2022-11-06T04:48:22.147Z,8.42
2022-11-06T04:48:54.349Z,8.44
2022-11-06T04:49:27.441Z,8.44
2022-11-06T04:50:01.196Z,8.45
2022-11-06T04:50:44.945Z,8.44
2022-11-06T04:51:20.495Z,8.45
2022-11-06T04:51:52.551Z,8.41
2022-11-06T04:52:27.675Z,8.43
2022-11-06T04:52:59.614Z,8.42
2022-11-06T04:53:31.956Z,8.41
2022-11-06T04:54:04.435Z,8.45
2022-11-06T04:54:36.210Z,8.46
2022-11-06T04:55:07.999Z,8.48
2022-11-06T04:56:00.048Z,8.48
2022-11-06T04:56:35.609Z,8.47
2022-11-06T04:57:08.198Z,8.49
2022-11-06T04:57:39.684Z,8.49
2022-11-06T04:58:11.556Z,8.48
2022-11-06T04:58:43.322Z,8.49
2022-11-06T04:59:17.645Z,8.52
2022-11-06T04:59:49.425Z,8.51
2022-11-06T05:00:20.939Z,8.50
2022-11-06T05:00:52.507Z,8.51
2022-11-06T05:01:24.260Z,8.50
2022-11-06T05:01:55.903Z,8.48
2022-11-06T05:02:27.613Z,8.48
2022-11-06T05:02:59.313Z,8.47
2022-11-06T05:03:31.109Z,8.48
2022-11-06T05:04:02.734Z,8.48
2022-11-06T05:04:34.256Z,8.46
2022-11-06T05:05:06.661Z,8.47
2022-11-06T05:05:38.337Z,8.48
2022-11-06T05:06:09.910Z,8.49
2022-11-06T05:06:41.412Z,8.49
2022-11-06T05:07:13.788Z,8.50
2022-11-06T05:07:45.289Z,8.54
2022-11-06T05:08:18.704Z,8.58
2022-11-06T05:08:50.246Z,8.55
2022-11-06T05:09:21.838Z,8.52
2022-11-06T05:09:53.353Z,8.53
2022-11-06T05:10:24.855Z,8.52
2022-11-06T05:10:56.373Z,8.52
2022-11-06T05:11:28.096Z,8.54
2022-11-06T05:11:59.810Z,8.51
2022-11-06T05:12:31.400Z,8.54
2022-11-06T05:13:02.889Z,8.55
2022-11-06T05:13:34.588Z,8.56
2022-11-06T05:14:06.221Z,8.53
2022-11-06T05:14:37.713Z,8.54
2022-11-06T05:15:09.594Z,8.55
2022-11-06T05:15:41.983Z,8.54
2022-11-06T05:16:13.540Z,8.57
2022-11-06T05:16:45.211Z,8.56
2022-11-06T05:17:16.747Z,8.58
2022-11-06T05:17:48.693Z,8.55
2022-11-06T05:18:20.249Z,8.54
2022-11-06T05:18:51.756Z,8.54
2022-11-06T05:19:23.285Z,8.56
2022-11-06T05:19:54.760Z,8.51
2022-11-06T05:20:26.463Z,8.50
2022-11-06T05:21:20.288Z,8.51
2022-11-06T05:22:10.076Z,8.47
2022-11-06T05:23:00.656Z,8.45
2022-11-06T05:23:32.378Z,8.43
2022-11-06T05:24:04.340Z,8.45
2022-11-06T05:24:35.981Z,8.40
2022-11-06T05:25:07.950Z,8.36
2022-11-06T05:25:40.454Z,8.38
2022-11-06T05:26:12.026Z,8.35
2022-11-06T05:26:43.686Z,8.40
2022-11-06T05:27:15.194Z,8.42
2022-11-06T05:27:46.660Z,8.40
2022-11-06T05:28:18.257Z,8.38
2022-11-06T05:28:49.775Z,8.36
2022-11-06T05:29:21.316Z,8.35
2022-11-06T05:29:53.274Z,8.35
2022-11-06T05:30:25.364Z,8.36
2022-11-06T05:30:56.871Z,8.36
2022-11-06T05:31:33.256Z,8.36
2022-11-06T05:32:05.128Z,8.36
2022-11-06T05:32:36.735Z,8.36
2022-11-06T05:33:08.241Z,8.34
2022-11-06T05:33:39.800Z,8.33
2022-11-06T05:34:11.370Z,8.31
2022-11-06T05:34:43.055Z,8.29
2022-11-06T05:35:15.170Z,8.29
2022-11-06T05:35:46.725Z,8.29
2022-11-06T05:36:18.266Z,8.31
2022-11-06T05:36:49.782Z,8.30
2022-11-06T05:37:21.262Z,8.34
2022-11-06T05:38:01.958Z,8.31
2022-11-06T05:38:33.897Z,8.24
2022-11-06T05:39:05.497Z,8.26
2022-11-06T05:39:41.532Z,8.24
2022-11-06T05:40:14.026Z,8.25
2022-11-06T05:40:46.236Z,8.22
2022-11-06T05:41:17.817Z,8.23
2022-11-06T05:41:49.329Z,8.21
2022-11-06T05:42:21.585Z,8.24
2022-11-06T05:42:53.163Z,8.19
2022-11-06T05:43:24.749Z,8.17
2022-11-06T05:43:56.515Z,8.13
2022-11-06T05:44:28.034Z,8.13
2022-11-06T05:44:59.576Z,8.11
2022-11-06T05:45:31.150Z,8.11
2022-11-06T05:46:02.653Z,8.13
2022-11-06T05:46:50.222Z,8.12
2022-11-06T05:47:22.038Z,8.14
2022-11-06T05:47:53.525Z,8.10
2022-11-06T05:48:24.997Z,8.11
2022-11-06T05:48:56.492Z,8.11
2022-11-06T05:49:28.351Z,8.10
2022-11-06T05:49:59.866Z,8.12
2022-11-06T05:50:31.380Z,8.11
2022-11-06T05:51:08.936Z,8.10
2022-11-06T05:51:40.421Z,8.07
2022-11-06T05:52:11.952Z,8.06
2022-11-06T05:52:43.527Z,8.06
2022-11-06T05:53:15.680Z,8.08
2022-11-06T05:53:47.178Z,8.07
2022-11-06T05:54:18.686Z,8.06
2022-11-06T05:54:50.377Z,8.05
2022-11-06T05:55:21.860Z,8.05
2022-11-06T05:55:53.412Z,8.03
2022-11-06T05:56:25.209Z,8.03
2022-11-06T05:56:56.757Z,8.02
2022-11-06T05:57:28.242Z,8.02
2022-11-06T05:57:59.737Z,8.09
2022-11-06T05:58:31.338Z,8.05
2022-11-06T05:59:03.205Z,8.02
2022-11-06T05:59:34.890Z,8.03
2022-11-06T06:00:07.460Z,8.06
2022-11-06T06:00:44.107Z,8.02
2022-11-06T06:01:15.756Z,8.01
2022-11-06T06:01:47.296Z,8.00
2022-11-06T06:02:19.040Z,7.98
2022-11-06T06:02:50.692Z,7.96
2022-11-06T06:03:22.375Z,7.94
2022-11-06T06:03:53.888Z,7.94
2022-11-06T06:04:25.718Z,7.96
2022-11-06T06:04:57.269Z,7.94
2022-11-06T06:05:28.927Z,7.92
2022-11-06T06:06:00.464Z,7.90
2022-11-06T06:06:32.245Z,7.89
2022-11-06T06:07:03.799Z,7.89
2022-11-06T06:07:35.558Z,7.88
2022-11-06T06:08:07.026Z,7.88
2022-11-06T06:08:38.524Z,7.84
2022-11-06T06:09:10.029Z,7.85
2022-11-06T06:09:41.657Z,7.89
2022-11-06T06:10:13.410Z,7.86
2022-11-06T06:10:46.445Z,7.82
2022-11-06T06:11:18.073Z,7.83
2022-11-06T06:11:53.398Z,7.82
2022-11-06T06:12:26.465Z,7.82
2022-11-06T06:12:57.982Z,7.79
2022-11-06T06:13:29.468Z,7.85
2022-11-06T06:14:01.840Z,7.81
2022-11-06T06:14:33.373Z,7.78
2022-11-06T06:15:06.207Z,7.77
2022-11-06T06:15:38.537Z,7.75
2022-11-06T06:16:10.114Z,7.73
2022-11-06T06:16:41.592Z,7.72
2022-11-06T06:17:13.158Z,7.73
2022-11-06T06:17:45.568Z,7.72
2022-11-06T06:18:17.335Z,7.72
2022-11-06T06:18:51.010Z,7.73
2022-11-06T06:19:22.517Z,7.74
2022-11-06T06:19:54.107Z,7.72
2022-11-06T06:20:25.720Z,7.74
2022-11-06T06:20:59.056Z,7.75
2022-11-06T06:21:30.866Z,7.75
2022-11-06T06:22:02.398Z,7.73
2022-11-06T06:22:33.996Z,7.72
2022-11-06T06:23:09.329Z,7.73
2022-11-06T06:23:41.737Z,7.74
2022-11-06T06:24:13.300Z,7.70
2022-11-06T06:24:44.886Z,7.71
2022-11-06T06:25:22.688Z,7.72
2022-11-06T06:26:13.863Z,7.73
2022-11-06T06:26:45.586Z,7.77
2022-11-06T06:27:17.316Z,7.77
2022-11-06T06:27:48.899Z,7.77
2022-11-06T06:28:20.502Z,7.77
2022-11-06T06:28:52.019Z,7.79
2022-11-06T06:29:23.586Z,7.80
2022-11-06T06:29:55.146Z,7.81
2022-11-06T06:30:26.747Z,7.83
2022-11-06T06:31:01.570Z,7.83
2022-11-06T06:31:33.502Z,7.85
2022-11-06T06:32:05.337Z,7.85
2022-11-06T06:32:36.828Z,7.88
2022-11-06T06:33:08.325Z,7.88
2022-11-06T06:33:39.815Z,7.89
2022-11-06T06:34:11.557Z,7.89
2022-11-06T06:34:43.247Z,7.90
2022-11-06T06:35:14.842Z,7.91
2022-11-06T06:35:46.462Z,7.94
2022-11-06T06:36:17.970Z,7.93
2022-11-06T06:36:51.425Z,7.94
2022-11-06T06:37:22.953Z,7.94
2022-11-06T06:37:54.773Z,7.94
2022-11-06T06:38:26.495Z,7.98
2022-11-06T06:38:58.099Z,7.98
2022-11-06T06:39:29.689Z,8.00
2022-11-06T06:40:01.244Z,8.00
2022-11-06T06:40:32.783Z,7.99
2022-11-06T06:41:06.209Z,7.99
2022-11-06T06:41:37.718Z,7.98
2022-11-06T06:42:09.272Z,7.99
2022-11-06T06:42:40.819Z,7.98
2022-11-06T06:43:12.335Z,7.97
2022-11-06T06:43:43.988Z,8.02
2022-11-06T06:44:16.427Z,8.01
2022-11-06T06:44:47.940Z,8.01
2022-11-06T06:45:19.574Z,8.01
2022-11-06T06:45:51.676Z,8.04
2022-11-06T06:46:23.242Z,8.03
2022-11-06T06:46:54.825Z,8.03
2022-11-06T06:47:27.002Z,8.04
2022-11-06T06:48:03.639Z,8.06
2022-11-06T06:48:35.686Z,8.08
2022-11-06T06:49:07.246Z,8.07
2022-11-06T06:49:38.757Z,8.10
2022-11-06T06:50:10.640Z,8.14
2022-11-06T06:50:42.205Z,8.14
2022-11-06T06:51:13.877Z,8.16
2022-11-06T06:51:48.041Z,8.15
2022-11-06T06:52:19.585Z,8.16
2022-11-06T06:52:55.978Z,8.19
2022-11-06T06:53:28.118Z,8.21
2022-11-06T06:54:00.213Z,8.24
2022-11-06T06:54:31.830Z,8.25
2022-11-06T06:55:03.755Z,8.26
2022-11-06T06:55:35.252Z,8.27
2022-11-06T06:56:06.971Z,8.31
2022-11-06T06:56:38.466Z,8.31
2022-11-06T06:57:10.167Z,8.31
2022-11-06T06:57:41.651Z,8.32
2022-11-06T06:58:17.663Z,8.32
2022-11-06T06:58:49.746Z,8.32
2022-11-06T06:59:21.224Z,8.32
2022-11-06T06:59:52.755Z,8.34
2022-11-06T07:00:24.290Z,8.33
2022-11-06T07:00:59.300Z,8.35
2022-11-06T07:01:31.076Z,8.37
2022-11-06T07:02:03.285Z,8.38
2022-11-06T07:02:35.044Z,8.35
2022-11-06T07:03:06.574Z,8.35
2022-11-06T07:03:38.615Z,8.37
2022-11-06T07:04:11.004Z,8.38
2022-11-06T07:04:42.642Z,8.36
2022-11-06T07:05:14.277Z,8.30
2022-11-06T07:05:46.851Z,8.32
2022-11-06T07:06:19.952Z,8.37
2022-11-06T07:06:55.011Z,8.33
2022-11-06T07:07:26.506Z,8.30
2022-11-06T07:08:55.886Z,8.31
2022-11-06T07:09:30.442Z,8.32
2022-11-06T07:10:01.982Z,8.31
2022-11-06T07:10:33.517Z,8.32
2022-11-06T07:11:07.043Z,8.34
2022-11-06T07:11:38.570Z,8.36
2022-11-06T07:12:10.124Z,8.36
2022-11-06T07:12:41.637Z,8.39
2022-11-06T07:13:13.368Z,8.40
2022-11-06T07:13:45.078Z,8.40
2022-11-06T07:14:16.723Z,8.36
2022-11-06T07:14:48.354Z,8.38
2022-11-06T07:15:19.891Z,8.35
2022-11-06T07:15:51.426Z,8.36
2022-11-06T07:16:23.509Z,8.38
2022-11-06T07:16:55.046Z,8.36
2022-11-06T07:17:27.668Z,8.39
2022-11-06T07:18:04.002Z,8.42
2022-11-06T07:18:36.023Z,8.43
2022-11-06T07:19:07.651Z,8.50
2022-11-06T07:19:39.178Z,8.47
2022-11-06T07:20:11.151Z,8.47
2022-11-06T07:20:42.752Z,8.48
2022-11-06T07:21:14.606Z,8.47
2022-11-06T07:21:46.186Z,8.49
2022-11-06T07:22:21.641Z,8.48
2022-11-06T07:22:57.131Z,8.49
2022-11-06T07:23:28.619Z,8.49
2022-11-06T07:24:00.161Z,8.50
2022-11-06T07:24:31.768Z,8.50
2022-11-06T07:25:04.185Z,8.52
2022-11-06T07:25:36.508Z,8.50
2022-11-06T07:26:08.153Z,8.51
2022-11-06T07:26:39.758Z,8.51
2022-11-06T07:27:11.308Z,8.50
2022-11-06T07:27:42.882Z,8.53
2022-11-06T07:28:14.656Z,8.52
2022-11-06T07:28:46.578Z,8.52
2022-11-06T07:29:18.102Z,8.57
2022-11-06T07:29:49.773Z,8.60
2022-11-06T07:30:21.298Z,8.62
2022-11-06T07:30:52.867Z,8.62
2022-11-06T07:31:24.462Z,8.65
2022-11-06T07:31:55.966Z,8.65
2022-11-06T07:32:27.740Z,8.70
2022-11-06T07:33:05.896Z,8.73
2022-11-06T07:33:37.414Z,8.72
2022-11-06T07:34:09.947Z,8.77
2022-11-06T07:34:41.450Z,8.80
2022-11-06T07:35:12.984Z,8.85
2022-11-06T07:35:44.723Z,8.89
2022-11-06T07:36:16.413Z,8.92
2022-11-06T07:36:48.018Z,8.91
2022-11-06T07:37:19.552Z,8.98
2022-11-06T07:37:51.175Z,9.06
2022-11-06T07:38:22.727Z,9.07
2022-11-06T07:38:54.274Z,9.06
2022-11-06T07:39:25.781Z,9.08
2022-11-06T07:39:57.284Z,8.99
2022-11-06T07:40:28.873Z,8.96
2022-11-06T07:41:04.980Z,8.96
2022-11-06T07:41:37.422Z,9.02
2022-11-06T07:42:08.997Z,9.01
2022-11-06T07:42:43.696Z,9.09
2022-11-06T07:45:54.624Z,9.21
2022-11-06T07:46:26.217Z,9.18
2022-11-06T07:46:57.806Z,9.22
2022-11-06T07:47:32.377Z,9.23
2022-11-06T07:48:04.250Z,9.30
2022-11-06T07:48:36.306Z,9.33
2022-11-06T07:49:07.868Z,9.36
2022-11-06T07:49:39.347Z,9.34
2022-11-06T07:50:10.931Z,9.29
2022-11-06T07:50:42.471Z,9.32
2022-11-06T07:51:14.057Z,9.33
2022-11-06T07:51:45.614Z,9.30
2022-11-06T07:52:17.248Z,9.32
2022-11-06T07:52:48.827Z,9.36
2022-11-06T07:53:20.530Z,9.36
2022-11-06T07:53:52.039Z,9.34
2022-11-06T07:54:23.643Z,9.32
2022-11-06T07:54:55.216Z,9.33
2022-11-06T07:55:26.790Z,9.34
2022-11-06T07:55:58.467Z,9.32
2022-11-06T07:56:30.079Z,9.30
2022-11-06T07:57:01.651Z,9.31
2022-11-06T07:57:36.340Z,9.32
2022-11-06T07:58:07.843Z,9.32